CheckWX is a tool to help pilots better visualize weather data.  It is not intended as a substitute for an official pre-flight weather briefing.

21:13:20 UTC

CYJT TAF
Stephenville Airport
Stephenville, Canada
TAF CYJT 191738Z 1918/2018 24012KT P6SM FEW020 FEW090 BECMG 1923/2001 VRB03KT BECMG 2014/2016 24010KT RMK NXT FCST BY 200000Z

Sep-19@
18:00 UTC

Sep-19 @ 18:00 UTC

Sep-19@
23:00 UTC

Sep-19 @ 23:00 UTC

TAF CYJT 191738Z 1918/2018 24012KT P6SM FEW020 FEW090
Wind
  • 240° at 12 KTS
Cloud Levels
  • Few at 2,000' AGL
  • Few at 9,000' AGL

Sep-19@
23:00 UTC

Sep-19 @ 23:00 UTC

Sep-20@
14:00 UTC

Sep-20 @ 14:00 UTC

BECMG 1923/2001 VRB03KT

Becoming

Becoming Conditions expected by Fri, Sep 20, 2019 @ 01:00 UTC

Wind
  • Variable at 3 KTS
Cloud Levels
  • Few at 2,000' AGL
  • Few at 9,000' AGL

Sep-20@
14:00 UTC

Sep-20 @ 14:00 UTC

Sep-20@
18:00 UTC

Sep-20 @ 18:00 UTC

BECMG 2014/2016 24010KT RMK NXT FCST BY 200000Z

Becoming

Becoming Conditions expected by Fri, Sep 20, 2019 @ 16:00 UTC

Wind
  • 240° at 10 KTS
Cloud Levels
  • Few at 2,000' AGL
  • Few at 9,000' AGL